createdAt,value
2023-02-22T00:02:44.716Z,9.1
2023-02-22T00:07:52.519Z,9
2023-02-22T00:12:58.595Z,9
2023-02-22T00:18:04.695Z,9
2023-02-22T00:23:10.716Z,9
2023-02-22T00:28:18.671Z,8.9
2023-02-22T00:33:24.784Z,8.9
2023-02-22T00:38:30.950Z,8.9
2023-02-22T00:43:36.896Z,8.9
2023-02-22T00:48:42.971Z,8.8
2023-02-22T00:53:49.006Z,8.8
2023-02-22T00:58:55.072Z,8.8
2023-02-22T01:04:01.142Z,8.7
2023-02-22T01:09:07.227Z,8.7
2023-02-22T01:14:13.270Z,8.7
2023-02-22T01:19:19.370Z,8.6
2023-02-22T01:24:25.420Z,8.6
2023-02-22T01:29:31.486Z,8.6
2023-02-22T01:34:37.592Z,8.5
2023-02-22T01:39:45.500Z,8.5
2023-02-22T01:44:51.551Z,8.5
2023-02-22T01:49:57.639Z,8.4
2023-02-22T01:55:05.586Z,8.4
2023-02-22T02:00:13.522Z,8.4
2023-02-22T02:05:21.523Z,8.3
2023-02-22T02:10:29.370Z,8.3
2023-02-22T02:15:37.339Z,8.2
2023-02-22T02:20:45.300Z,8.2
2023-02-22T02:25:53.225Z,8.2
2023-02-22T02:31:01.177Z,8.2
2023-02-22T02:36:09.125Z,8.1
2023-02-22T02:41:17.299Z,8.1
2023-02-22T02:46:24.986Z,8.1
2023-02-22T02:51:32.962Z,8
2023-02-22T02:56:40.864Z,8
2023-02-22T03:01:48.859Z,8
2023-02-22T03:12:04.727Z,7.9
2023-02-22T03:17:12.636Z,7.9
2023-02-22T03:22:20.588Z,7.9
2023-02-22T03:27:28.552Z,7.8
2023-02-22T03:32:36.476Z,7.8
2023-02-22T03:37:44.421Z,7.8
2023-02-22T03:42:52.384Z,7.8
2023-02-22T03:48:00.309Z,7.7
2023-02-22T03:53:08.273Z,7.7
2023-02-22T03:58:16.212Z,7.7
2023-02-22T04:03:24.126Z,7.7
2023-02-22T04:08:32.081Z,7.6
2023-02-22T04:13:40.051Z,7.6
2023-02-22T04:18:47.989Z,7.6
2023-02-22T04:23:56.142Z,7.6
2023-02-22T04:29:03.880Z,7.6
2023-02-22T04:34:11.797Z,7.5
2023-02-22T04:39:19.757Z,7.5
2023-02-22T04:44:27.717Z,7.5
2023-02-22T04:49:38.038Z,7.5
2023-02-22T04:54:43.560Z,7.4
2023-02-22T04:59:51.555Z,7.4
2023-02-22T05:04:59.507Z,7.4
2023-02-22T05:10:07.410Z,7.4
2023-02-22T05:15:15.365Z,7.4
2023-02-22T05:20:23.287Z,7.4
2023-02-22T05:25:31.232Z,7.3
2023-02-22T05:30:39.275Z,7.3
2023-02-22T05:35:47.231Z,7.3
2023-02-22T05:40:55.058Z,7.3
2023-02-22T05:46:03.047Z,7.3
2023-02-22T05:51:10.938Z,7.2
2023-02-22T05:56:18.909Z,7.2
2023-02-22T06:01:26.897Z,7.2
2023-02-22T06:06:34.831Z,7.2
2023-02-22T06:11:42.757Z,7.2
2023-02-22T06:16:50.741Z,7.2
2023-02-22T06:21:58.630Z,7.2
2023-02-22T06:27:06.585Z,7.1
2023-02-22T06:32:14.569Z,7.1
2023-02-22T06:37:22.445Z,7.1
2023-02-22T06:42:30.377Z,7.1
2023-02-22T06:47:38.370Z,7.1
2023-02-22T06:52:46.287Z,7.1
2023-02-22T06:57:54.219Z,7.1
2023-02-22T07:03:02.225Z,7.1
2023-02-22T07:08:10.104Z,7.1
2023-02-22T07:13:18.060Z,7.1
2023-02-22T07:18:26.056Z,7
2023-02-22T07:23:32.045Z,7
2023-02-22T07:28:39.987Z,7
2023-02-22T07:33:47.986Z,7
2023-02-22T07:38:55.883Z,7
2023-02-22T07:44:03.825Z,7
2023-02-22T07:49:11.799Z,7
2023-02-22T07:54:19.730Z,7.1
2023-02-22T07:59:27.659Z,7
2023-02-22T08:04:35.637Z,7.1
2023-02-22T08:09:43.546Z,7.1
2023-02-22T08:14:51.480Z,7.1
2023-02-22T08:19:59.448Z,7.1
2023-02-22T08:25:07.363Z,7.1
2023-02-22T08:30:15.386Z,7.1
2023-02-22T08:40:31.248Z,7.1
2023-02-22T08:45:39.145Z,7.1
2023-02-22T08:50:47.105Z,7.1
2023-02-22T08:55:55.053Z,7.2
2023-02-22T09:01:02.959Z,7.2
2023-02-22T09:06:10.969Z,7.2
2023-02-22T09:11:19.094Z,7.2
2023-02-22T09:16:26.863Z,7.2
2023-02-22T09:21:35.082Z,7.2
2023-02-22T09:26:42.766Z,7.3
2023-02-22T09:31:50.855Z,7.3
2023-02-22T09:36:58.604Z,7.3
2023-02-22T09:42:06.556Z,7.3
2023-02-22T09:47:14.531Z,7.4
2023-02-22T09:52:22.435Z,7.4
2023-02-22T09:57:30.402Z,7.4
2023-02-22T10:02:38.331Z,7.5
2023-02-22T10:07:46.255Z,7.5
2023-02-22T10:12:54.232Z,7.5
2023-02-22T10:18:02.226Z,7.6
2023-02-22T10:23:10.097Z,7.6
2023-02-22T10:28:18.080Z,7.7
2023-02-22T10:33:25.974Z,7.7
2023-02-22T10:38:33.920Z,7.8
2023-02-22T10:43:41.889Z,7.8
2023-02-22T10:48:49.800Z,7.9
2023-02-22T10:53:57.725Z,8
2023-02-22T10:59:03.845Z,8
2023-02-22T11:04:11.756Z,8.1
2023-02-22T11:09:19.689Z,8.2
2023-02-22T11:14:27.654Z,8.2
2023-02-22T11:19:35.586Z,8.3
2023-02-22T11:24:49.076Z,8.4
2023-02-22T11:29:51.493Z,8.5
2023-02-22T11:35:08.821Z,8.5
2023-02-22T11:40:07.354Z,8.6
2023-02-22T11:45:15.342Z,8.7
2023-02-22T11:50:23.231Z,8.8
2023-02-22T11:55:42.462Z,8.9
2023-02-22T12:00:39.136Z,9
2023-02-22T12:05:47.031Z,9
2023-02-22T12:10:55.005Z,9.1
2023-02-22T12:16:03.066Z,9.2
2023-02-22T12:21:10.885Z,9.3
2023-02-22T12:26:19.042Z,9.4
2023-02-22T12:31:26.905Z,9.4
2023-02-22T12:36:34.707Z,9.5
2023-02-22T12:46:50.619Z,9.7
2023-02-22T12:51:59.420Z,9.7
2023-02-22T12:57:06.483Z,9.8
2023-02-22T13:02:14.462Z,9.9
2023-02-22T13:07:22.369Z,10
2023-02-22T13:12:30.283Z,10
2023-02-22T13:17:38.289Z,10.1
2023-02-22T13:22:46.189Z,10.2
2023-02-22T13:27:54.132Z,10.2
2023-02-22T13:33:02.143Z,10.3
2023-02-22T13:38:10.000Z,10.4
2023-02-22T13:43:17.962Z,10.4
2023-02-22T13:48:25.923Z,10.5
2023-02-22T13:53:33.839Z,10.6
2023-02-22T13:58:41.771Z,10.6
2023-02-22T14:03:49.749Z,10.7
2023-02-22T14:08:57.697Z,10.7
2023-02-22T14:14:05.600Z,10.8
2023-02-22T14:19:13.630Z,10.9
2023-02-22T14:24:21.494Z,10.9
2023-02-22T14:29:29.429Z,11
2023-02-22T14:34:37.404Z,11
2023-02-22T14:39:45.320Z,11.1
2023-02-22T14:44:53.263Z,11.2
2023-02-22T14:55:09.221Z,11.3
2023-02-22T15:00:17.107Z,11.4
2023-02-22T15:05:25.011Z,11.4
2023-02-22T15:10:33.006Z,11.5
2023-02-22T15:15:40.911Z,11.5
2023-02-22T15:20:48.856Z,11.6
2023-02-22T15:25:56.831Z,11.6
2023-02-22T15:31:04.789Z,11.7
2023-02-22T15:36:12.665Z,11.7
2023-02-22T15:41:20.638Z,11.7
2023-02-22T15:46:28.543Z,11.8
2023-02-22T15:51:36.500Z,11.8
2023-02-22T16:01:52.465Z,11.9
2023-02-22T16:07:00.336Z,11.9
2023-02-22T16:12:08.259Z,11.9
2023-02-22T16:17:16.300Z,11.9
2023-02-22T16:22:24.212Z,11.9
2023-02-22T16:27:32.111Z,11.9
2023-02-22T16:32:38.261Z,11.9
2023-02-22T16:37:46.086Z,11.9
2023-02-22T16:42:54.015Z,11.9
2023-02-22T16:48:02.248Z,11.9
2023-02-22T16:53:09.937Z,11.9
2023-02-22T16:58:17.889Z,11.9
2023-02-22T17:03:25.835Z,11.9
2023-02-22T17:08:33.724Z,11.9
2023-02-22T17:13:41.677Z,11.9
2023-02-22T17:18:49.611Z,11.8
2023-02-22T17:23:57.570Z,11.8
2023-02-22T17:29:05.490Z,11.8
2023-02-22T17:34:13.455Z,11.8
2023-02-22T17:39:21.395Z,11.7
2023-02-22T17:44:29.325Z,11.7
2023-02-22T17:49:37.309Z,11.7
2023-02-22T17:54:45.206Z,11.7
2023-02-22T17:59:53.227Z,11.6
2023-02-22T18:05:01.105Z,11.6
2023-02-22T18:10:09.030Z,11.6
2023-02-22T18:15:16.952Z,11.6
2023-02-22T18:20:24.925Z,11.5
2023-02-22T18:25:32.862Z,11.5
2023-02-22T18:30:40.833Z,11.5
2023-02-22T18:35:48.763Z,11.5
2023-02-22T18:40:56.670Z,11.4
2023-02-22T18:46:04.632Z,11.4
2023-02-22T18:51:12.601Z,11.4
2023-02-22T18:56:20.718Z,11.4
2023-02-22T19:01:28.512Z,11.3
2023-02-22T19:06:36.434Z,11.3
2023-02-22T19:11:44.320Z,11.3
2023-02-22T19:16:52.292Z,11.2
2023-02-22T19:22:00.228Z,11.2
2023-02-22T19:27:08.135Z,11.2
2023-02-22T19:32:16.156Z,11.2
2023-02-22T19:37:24.060Z,11.1
2023-02-22T19:42:31.982Z,11.1
2023-02-22T19:47:39.910Z,11.1
2023-02-22T19:52:47.886Z,11.1
2023-02-22T19:57:55.798Z,11
2023-02-22T20:03:03.733Z,11
2023-02-22T20:08:11.737Z,11
2023-02-22T20:13:19.637Z,11
2023-02-22T20:18:27.579Z,10.9
2023-02-22T20:23:35.578Z,10.9
2023-02-22T20:28:43.453Z,10.9
2023-02-22T20:33:51.478Z,10.9
2023-02-22T20:38:59.424Z,10.8
2023-02-22T20:44:07.288Z,10.8
2023-02-22T20:49:15.239Z,10.8
2023-02-22T20:54:23.190Z,10.8
2023-02-22T20:59:31.112Z,10.8
2023-02-22T21:04:39.118Z,10.7
2023-02-22T21:09:47.010Z,10.7
2023-02-22T21:14:54.932Z,10.7
2023-02-22T21:20:01.020Z,10.7
2023-02-22T21:25:07.100Z,10.7
2023-02-22T21:30:13.152Z,10.6
2023-02-22T21:35:19.228Z,10.6
2023-02-22T21:40:25.309Z,10.6
2023-02-22T21:45:31.342Z,10.6
2023-02-22T21:50:37.423Z,10.5
2023-02-22T21:55:45.378Z,10.5
2023-02-22T22:00:51.430Z,10.5
2023-02-22T22:05:57.505Z,10.5
2023-02-22T22:11:05.728Z,10.5
2023-02-22T22:16:09.765Z,10.5
2023-02-22T22:21:16.130Z,10.4
2023-02-22T22:26:21.852Z,10.4
2023-02-22T22:31:28.017Z,10.4
2023-02-22T22:36:33.892Z,10.4
2023-02-22T22:41:39.977Z,10.4
2023-02-22T22:46:46.042Z,10.3
2023-02-22T22:51:52.093Z,10.3
2023-02-22T22:56:58.214Z,10.3
2023-02-22T23:02:06.300Z,10.3
2023-02-22T23:07:14.052Z,10.3
2023-02-22T23:12:22.012Z,10.3
2023-02-22T23:17:29.919Z,10.2
2023-02-22T23:22:37.880Z,10.2
2023-02-22T23:27:45.891Z,10.2
2023-02-22T23:32:53.774Z,10.2
2023-02-22T23:37:59.812Z,10.2
2023-02-22T23:43:05.926Z,10.2
2023-02-22T23:48:11.969Z,10.2
2023-02-22T23:53:18.004Z,10.1
2023-02-22T23:58:24.123Z,10.1
